Latest Coastal Weather Observations for Ceduna

IDS60701

Issued at 7:43 pm CDT Wednesday 28 January 2015 (issued every 10 minutes, with the page automatically refreshed every 10 minutes)

About coastal observations | Map of coastal stations | Coastal observations for SA | Marine services | Other Formats
Station Details ID: 018012 Name: CEDUNA AMO Lat: -32.13 Lon: 133.70 Height: 15.3 m
Data from the previous 72 hours. | See also: Recent months at Ceduna
Date/Time
CDT
Temp

°C
Wind Pressure Rain
since 9am
mm
Weather Cloud Vis
km
Sea
Height
m
Swell
Dir
 
Speed
knots
Gust
knots
hPa Trend Height
m
Period
s
Dir
28/07:30pm 20.1 S 19 26 1014.3 - 0.0 - - 10 - - - -
28/07:00pm 20.4 S 22 28 1014.0 - 0.0 - - 10 - - - -
28/06:30pm 20.5 S 23 28 1013.9 - 0.0 - - 10 - - - -
28/06:00pm 20.7 S 23 28 1014.1 F 0.0 - - 10 - - - -
28/05:30pm 21.2 S 22 29 1014.3 - 0.0 - - 10 - - - -
28/05:00pm 21.7 S 23 29 1014.5 - 0.0 - - 10 - - - -
28/04:30pm 22.8 S 21 28 1014.6 - 0.0 - - 10 - - - -
28/04:00pm 22.3 S 21 26 1014.8 - 0.0 - - 10 - - - -
28/03:30pm 22.6 S 20 27 1015.1 - 0.0 - - 10 - - - -
28/03:00pm 21.9 S 21 26 1015.4 F 0.0 - - 10 - - - -
28/02:30pm 22.0 S 20 26 1015.6 - 0.0 - - 10 - - - -
28/02:00pm 22.8 S 19 23 1016.0 - 0.0 - - 10 - - - -
28/01:30pm 22.5 S 18 23 1016.2 - 0.0 - - 10 - - - -
28/01:00pm 23.3 SSW 16 21 1016.4 - 0.0 - - 10 - - - -
28/12:30pm 22.8 S 15 20 1016.6 - 0.0 - - 10 - - - -
28/12:00pm 21.9 S 15 19 1016.9 F 0.0 - - 10 - - - -
28/11:30am 21.7 S 14 19 1016.9 - 0.0 - - 10 - - - -
28/11:00am 21.0 SSE 14 19 1017.1 - 0.0 - - 10 - - - -
28/10:30am 20.8 SE 14 18 1017.3 - 0.0 - - 10 - - - -
28/10:00am 20.2 SE 14 19 1017.5 - 0.0 - - 10 - - - -
28/09:30am 19.5 ESE 14 18 1017.6 - 0.0 - - 10 - - - -
28/09:00am 18.4 SE 15 19 1017.7 R - - - 10 - - - -
28/08:30am 16.7 SE 11 14 1017.5 - - - - 10 - - - -
28/08:00am 15.1 SE 9 12 1017.1 - - - - 10 - - - -
28/07:30am 13.2 ESE 8 11 1016.8 - - - - 10 - - - -
28/07:00am 12.0 SE 9 11 1016.4 - - - - 10 - - - -
28/06:30am 12.1 SE 10 13 1016.1 - - - - 10 - - - -
28/06:00am 11.9 SE 8 9 1015.9 R - - - 10 - - - -
28/05:30am 11.5 SE 5 7 1015.8 - - - - 10 - - - -
28/05:00am 12.2 SE 7 9 1015.6 - - - - 10 - - - -
28/04:30am 12.7 SE 7 8 1015.5 - - - - 10 - - - -
28/04:00am 13.5 SE 8 10 1015.5 - - - - 10 - - - -
28/03:30am 14.5 SE 10 13 1015.4 - - - - 10 - - - -
28/03:00am 14.2 SE 8 9 1015.6 R - - - 10 - - - -
28/02:30am 15.3 SE 10 13 1015.8 - - - - 10 - - - -
28/02:00am 15.3 SE 9 13 1016.0 - - - - 10 - - - -
28/01:30am 16.0 SE 10 14 1016.1 - - - - 10 - - - -
28/01:00am 16.6 - - - 1016.2 - - - - - - - - -
 
Date/Time
CDT
Temp

°C
Wind Pressure Rain
since 9am
mm
Weather Cloud Vis
km
Sea
Height
m
Swell
Dir
 
Speed
knots
Gust
knots
hPa Trend Height
m
Period
s
Dir
27/11:30pm 17.3 SSE 16 22 1016.4 - - - - 10 - - - -
27/11:00pm 17.3 SSE 16 22 1016.7 - - - - 10 - - - -
27/10:30pm 17.5 SSE 16 21 1016.9 - - - - 10 - - - -
27/10:00pm 17.7 SSE 16 21 1016.8 - - - - 10 - - - -
27/09:30pm 17.8 SSE 18 25 1016.6 - - - - 10 - - - -
27/09:00pm 17.9 SSE 21 27 1016.1 F 0.0 - - 10 - - - -
27/08:30pm 18.2 SSE 20 28 1015.9 - - - - 10 - - - -
27/08:00pm 18.9 S 19 25 1016.0 - - - - 10 - - - -
27/07:30pm 19.5 S 20 28 1015.9 - - - - 10 - - - -
27/07:00pm 19.8 S 19 27 1015.6 - - - - 10 - - - -
27/06:30pm 20.2 S 21 27 1015.5 - - - - 10 - - - -
27/06:00pm 20.7 S 19 26 1015.7 - - - - 10 - - - -
27/05:30pm 20.6 S 20 25 1015.7 - - - - 10 - - - -
27/05:00pm 20.5 S 20 25 1015.7 - - - - 10 - - - -
27/04:30pm 21.1 S 20 25 1015.9 - - - - 10 - - - -
27/04:00pm 21.0 S 21 25 1016.1 - - - - 10 - - - -
27/03:30pm 21.6 S 19 24 1016.3 - - - - 10 - - - -
27/01:30pm 21.3 SSW 18 23 1016.8 - 0.0 - - 10 - - - -
27/01:00pm 22.1 SSW 17 23 1017.0 - 0.0 - - 10 - - - -
27/12:30pm 21.8 S 15 21 1017.5 - 0.0 - - 10 - - - -
27/12:00pm 21.5 S 15 20 1017.6 F 0.0 - - 10 - - - -
27/11:30am 21.3 SSE 12 18 1018.0 - 0.0 - - 10 - - - -
27/11:00am 20.7 SE 12 18 1018.1 - 0.0 - - 10 - - - -
27/10:30am 19.9 ESE 13 18 1018.4 - 0.0 - - 10 - - - -
27/10:00am 19.5 ESE 15 19 1018.6 - 0.0 - - 10 - - - -
27/09:30am 19.1 SE 13 17 1018.6 - 0.0 - - 10 - - - -
27/09:00am 17.4 SE 14 18 1018.7 R 0.0 - - 10 - - - -
27/08:30am 16.1 SE 11 15 1018.6 - 0.0 - - 10 - - - -
27/08:00am 14.0 SE 7 10 1018.1 - 0.0 - - 10 - - - -
27/07:30am 11.0 SE 6 7 1017.6 - 0.0 - - 10 - - - -
27/07:00am 8.6 SE 5 7 1017.4 - 0.0 - - 10 - - - -
27/06:30am 8.2 SE 7 7 1017.1 - 0.0 - - 10 - - - -
27/06:00am 8.7 SE 6 7 1017.0 R 0.0 - - 10 - - - -
27/05:30am 9.8 SE 6 7 1017.1 - 0.0 - - 10 - - - -
27/05:00am 10.6 SE 6 7 1016.9 - 0.0 - - 10 - - - -
27/04:30am 11.9 SE 5 6 1016.8 - 0.0 - - 10 - - - -
27/04:00am 13.4 SE 8 10 1016.7 - 0.0 - - 10 - - - -
27/03:30am 13.9 SE 9 11 1016.6 - 0.0 - - 10 - - - -
27/03:00am 14.8 SE 10 14 1016.7 F 0.0 - - 10 - - - -
27/02:30am 15.4 SE 11 14 1016.8 - 0.0 - - 10 - - - -
27/02:00am 15.8 SE 12 15 1016.8 - 0.0 - - 10 - - - -
27/01:30am 15.3 SE 8 9 1017.3 - 0.0 - - 10 - - - -
27/01:00am 15.7 SE 9 13 1017.5 - 0.0 - - 10 - - - -
27/12:30am 16.4 SSE 12 17 1017.8 - 0.0 - - 10 - - - -
27/12:00am 16.3 SSE 12 16 1018.0 F 0.0 - - 10 - - - -
 
Date/Time
CDT
Temp

°C
Wind Pressure Rain
since 9am
mm
Weather Cloud Vis
km
Sea
Height
m
Swell
Dir
 
Speed
knots
Gust
knots
hPa Trend Height
m
Period
s
Dir
26/11:30pm 16.5 SSE 14 19 1018.1 - 0.0 - - 10 - - - -
26/11:00pm 16.9 SSE 15 20 1018.2 - 0.0 - - 10 - - - -
26/10:30pm 17.0 SSE 15 22 1018.2 - 0.0 - - 10 - - - -
26/10:00pm 17.2 SSE 16 23 1018.2 - 0.0 - - 10 - - - -
26/09:30pm 17.5 SSE 16 23 1018.0 - 0.0 - Partly cloudy 10 - - - -
26/09:00pm 17.5 SSE 18 23 1017.8 R 0.0 - - 10 - - - -
26/08:30pm 17.8 SSE 16 24 1017.5 - 0.0 - - 10 - - - -
26/08:00pm 18.4 SSE 18 25 1017.2 - 0.0 - - 10 - - - -
26/07:30pm 19.2 S 20 26 1017.0 - 0.0 - - 10 - - - -
26/07:00pm 19.3 S 19 25 1016.8 - 0.0 - - 10 - - - -
26/06:30pm 19.9 S 20 25 1016.7 - 0.0 - - 10 - - - -
26/06:00pm 20.4 S 19 24 1016.8 F 0.0 - - 10 - - - -
26/05:30pm 20.5 S 19 26 1016.8 - 0.0 - - 10 - - - -
26/05:00pm 21.9 S 19 24 1017.0 - 0.0 - - 10 - - - -
26/04:30pm 20.8 S 19 25 1017.1 - 0.0 - - 10 - - - -
26/04:00pm 21.9 S 18 24 1017.3 - 0.0 - - 10 - - - -
26/03:30pm 21.5 SSW 19 23 1017.5 - 0.0 - - 10 - - - -
26/03:00pm 20.8 S 19 25 1017.5 S 0.0 Fine Mostly clear 30 - - - -
26/02:30pm 21.7 SSW 18 23 1017.5 - 0.0 - - 10 - - - -
26/02:00pm 21.3 S 17 21 1017.9 - 0.0 - - 10 - - - -
26/01:30pm 21.3 SSW 15 23 1018.1 - 0.0 - - 10 - - - -
26/01:00pm 21.1 SSW 13 19 1018.3 - 0.0 - - 10 - - - -
26/12:30pm 20.3 SSW 15 19 1018.5 - 0.0 - - 10 - - - -
26/12:00pm 21.3 S 13 19 1018.8 R 0.0 Fine Mostly cloudy 30 - - - -
26/11:31am 20.9 SSE 15 25 1018.9 - 0.0 - Cloudy 10 - - - -
26/11:30am 20.4 SSE 14 25 1018.9 - 0.0 - Cloudy 10 - - - -
26/11:00am 19.6 SSE 12 17 1018.8 - 0.0 - Cloudy 10 - - - -
26/10:30am 19.1 SE 12 17 1018.8 - 0.0 - Cloudy 10 - - - -
26/10:00am 18.3 SE 11 16 1018.9 - 0.0 - Cloudy 10 - - - -
26/09:30am 17.5 SE 13 16 1019.1 - 0.0 - Partly cloudy 10 - - - -
26/09:00am 17.8 ESE 13 16 1018.8 F 0.0 Fine Partly cloudy 30 - - - -
26/08:30am 16.5 ESE 11 14 1018.8 - 0.0 - Partly cloudy 10 - - - -
26/08:00am 14.7 ESE 9 12 1018.6 - 0.0 - - 10 - - - -
26/07:30am 12.3 ESE 7 8 1018.3 - 0.0 - - 10 - - - -
26/07:00am 11.2 ESE 8 9 1018.1 - 0.0 - - 10 - - - -
26/06:30am 10.7 ESE 7 9 1017.6 - 0.0 - - 10 - - - -
26/06:00am 11.2 ESE 7 8 1017.5 R 0.0 - - 10 - - - -
26/05:30am 12.0 ESE 8 11 1017.4 - 0.0 - - 10 - - - -
26/05:00am 11.3 E 8 9 1017.3 - 0.0 - - 10 - - - -
26/04:30am 11.6 E 7 9 1017.2 - 0.0 - - 10 - - - -
26/04:00am 12.1 E 8 9 1017.4 - 0.0 - Partly cloudy 10 - - - -
26/03:30am 11.5 E 7 8 1017.2 - 0.0 - Partly cloudy 10 - - - -
26/03:00am 11.5 E 7 8 1017.2 R 0.0 - - 10 - - - -
26/02:30am 12.7 ESE 7 9 1017.2 - 0.0 - - 10 - - - -
26/02:00am 13.0 ESE 7 8 1017.2 - 0.0 - - 10 - - - -
26/01:30am 15.8 SE 10 14 1017.2 - 0.0 - Partly cloudy 10 - - - -
26/01:00am 15.9 SE 8 11 1017.5 - 0.0 - Partly cloudy 10 - - - -
26/12:30am 16.6 SSE 9 12 1017.7 - 0.0 - Partly cloudy 10 - - - -
26/12:00am 16.9 SSE 12 16 1017.6 S 0.0 - Partly cloudy 10 - - - -
 
Date/Time
CDT
Temp

°C
Wind Pressure Rain
since 9am
mm
Weather Cloud Vis
km
Sea
Height
m
Swell
Dir
 
Speed
knots
Gust
knots
hPa Trend Height
m
Period
s
Dir
25/11:30pm 17.1 S 15 21 1017.8 - 0.0 - Partly cloudy 10 - - - -
25/11:00pm 17.3 SSE 14 19 1017.8 - 0.0 - Partly cloudy 10 - - - -
25/10:30pm 17.1 SSE 11 15 1018.0 - 0.0 - Partly cloudy 10 - - - -
25/10:00pm 17.1 SSE 13 17 1017.7 - 0.0 - Partly cloudy 10 - - - -
25/09:30pm 17.3 SSE 12 17 1017.5 - 0.0 - - 10 - - - -
25/09:00pm 17.3 SSE 13 18 1017.0 F 0.0 - - 10 - - - -
25/08:30pm 17.6 S 14 19 1016.9 - 0.0 - - 10 - - - -
25/08:00pm 18.0 S 15 19 1016.9 - 0.0 - Partly cloudy 10 - - - -

Other Formats:

Comma delimited format used in spreadsheet applications
http://www.bom.gov.au/fwo/IDS60701/IDS60701.94653.axf

JavaScript Object Notation format (JSON) in row-major order
http://www.bom.gov.au/fwo/IDS60701/IDS60701.94653.json